Time;durP1;ratioP1;P1;durP2;ratioP2;P2;SDS_P1;SDS_P2;PMS_P1;PMS_P2;Temp;Humidity;BMP_temperature;BMP_pressure;BME280_temperature;BME280_humidity;BME280_pressure;Samples;Min_cycle;Max_cycle;Signal;HPM_P1;HPM_P2
2023/01/29 00:01:46;;;;;;;20.13;14.23;;;-3.10;99.90;;;;;;5003008;28;20187;-76
2023/01/29 00:04:11;;;;;;;20.40;14.53;;;-3.00;1.00;;;;;;5003187;28;20196;-75
2023/01/29 00:06:38;;;;;;;18.97;12.67;;;-3.00;99.90;;;;;;5003123;28;20216;-77
2023/01/29 00:09:03;;;;;;;24.40;14.37;;;-2.90;99.90;;;;;;5002359;28;20615;-76
2023/01/29 00:11:30;;;;;;;22.20;14.23;;;-2.90;99.90;;;;;;5003359;28;20192;-76
2023/01/29 00:13:56;;;;;;;22.53;13.97;;;-2.80;99.90;;;;;;5002370;28;20736;-76
2023/01/29 00:16:22;;;;;;;19.07;13.43;;;-2.80;99.90;;;;;;5017429;28;20224;-78
2023/01/29 00:18:47;;;;;;;18.70;13.90;;;-2.70;99.90;;;;;;5003067;28;20180;-78
2023/01/29 00:21:16;;;;;;;19.73;12.77;;;-2.70;99.90;;;;;;5006117;28;20660;-79
2023/01/29 00:23:42;;;;;;;18.60;13.53;;;-2.70;99.90;;;;;;5008358;28;20179;-78
2023/01/29 00:26:08;;;;;;;18.53;12.73;;;-2.60;99.90;;;;;;5007489;28;20204;-78
2023/01/29 00:28:35;;;;;;;17.60;12.27;;;-2.60;99.90;;;;;;5006771;28;20816;-79
2023/01/29 00:31:15;;;;;;;18.33;13.00;;;-2.50;99.90;;;;;;5006970;28;20210;-78
2023/01/29 00:33:41;;;;;;;16.87;13.00;;;-2.50;99.90;;;;;;5008112;28;20262;-78
2023/01/29 00:36:09;;;;;;;18.27;13.50;;;-2.50;99.90;;;;;;5005381;28;20624;-78
2023/01/29 00:38:35;;;;;;;16.97;13.20;;;-2.50;99.90;;;;;;5007677;28;20281;-78
2023/01/29 00:46:43;;;;;;;18.30;13.33;;;-2.50;99.90;;;;;;5007181;28;20230;-78
2023/01/29 00:49:09;;;;;;;18.90;13.23;;;-2.50;99.90;;;;;;5007643;28;20179;-77
2023/01/29 00:51:36;;;;;;;17.77;13.63;;;-2.50;99.90;;;;;;5005988;28;20187;-77
2023/01/29 00:54:05;;;;;;;19.17;13.73;;;-2.50;99.90;;;;;;5007237;28;20187;-78
2023/01/29 00:56:32;;;;;;;19.10;13.37;;;-2.50;99.90;;;;;;5005727;28;21388;-77
2023/01/29 00:58:58;;;;;;;17.33;12.83;;;-2.50;99.90;;;;;;5022478;28;20270;-77
2023/01/29 01:04:11;;;;;;;20.40;13.07;;;-2.40;99.90;;;;;;4986354;28;20188;-78
2023/01/29 01:06:38;;;;;;;20.80;13.67;;;-2.40;99.90;;;;;;5007116;28;20214;-77
2023/01/29 01:11:48;;;;;;;22.60;16.53;;;-2.30;99.90;;;;;;5005816;28;20183;-77
2023/01/29 01:14:14;;;;;;;25.57;17.97;;;-2.20;99.90;;;;;;5006839;28;20183;-77
2023/01/29 01:16:39;;;;;;;22.07;15.77;;;-2.20;99.90;;;;;;5008016;28;20758;-77
2023/01/29 01:19:05;;;;;;;21.00;15.07;;;-2.20;99.90;;;;;;5007191;28;20588;-77
2023/01/29 01:21:31;;;;;;;19.47;13.97;;;-1.60;99.90;;;;;;5007217;28;20183;-77
2023/01/29 01:23:57;;;;;;;22.93;16.03;;;-2.10;99.90;;;;;;5007199;28;20191;-77
2023/01/29 01:26:23;;;;;;;20.40;14.50;;;-2.10;99.90;;;;;;5005712;28;20222;-78
2023/01/29 01:28:48;;;;;;;19.53;14.60;;;-2.20;1.00;;;;;;5005242;28;20847;-78
2023/01/29 01:31:14;;;;;;;18.93;12.80;;;-2.20;99.90;;;;;;5006386;28;20206;-77
2023/01/29 01:33:40;;;;;;;19.60;13.20;;;-2.30;99.90;;;;;;5007073;28;20222;-77
2023/01/29 01:36:09;;;;;;;21.50;13.77;;;-2.40;99.90;;;;;;5005831;28;20274;-77
2023/01/29 01:38:43;;;;;;;18.80;13.43;;;-2.50;99.90;;;;;;5005394;28;20210;-78
2023/01/29 01:41:10;;;;;;;19.77;13.23;;;-2.50;99.90;;;;;;5006520;28;20168;-78
2023/01/29 01:43:51;;;;;;;19.57;13.97;;;-2.50;99.90;;;;;;5008124;28;21062;-77
2023/01/29 01:46:16;;;;;;;18.53;13.47;;;-2.70;99.90;;;;;;5007977;28;20294;-78
2023/01/29 01:48:45;;;;;;;21.23;13.47;;;-2.70;99.90;;;;;;5004788;28;20792;-78
2023/01/29 01:51:12;;;;;;;20.30;13.50;;;-2.70;99.90;;;;;;5006758;28;20199;-79
2023/01/29 01:53:56;;;;;;;20.30;14.50;;;-2.70;1.00;;;;;;5007767;28;20188;-77
2023/01/29 01:56:37;;;;;;;19.40;13.27;;;-2.80;1.00;;;;;;5008971;28;20566;-77
2023/01/29 01:59:06;;;;;;;18.10;13.10;;;-2.70;1.00;;;;;;5008770;28;20190;-79
2023/01/29 02:01:32;;;;;;;18.13;12.80;;;-2.60;1.00;;;;;;5008045;28;20533;-78
2023/01/29 02:09:46;;;;;;;20.93;13.23;;;-2.50;1.00;;;;;;5008734;28;20264;-78
2023/01/29 02:12:14;;;;;;;18.93;13.10;;;-2.40;99.90;;;;;;5008294;28;20184;-79
2023/01/29 02:14:41;;;;;;;19.57;12.67;;;-2.30;99.90;;;;;;5007219;28;20187;-77
2023/01/29 02:17:09;;;;;;;18.83;12.40;;;-2.30;99.90;;;;;;5008917;28;20220;-79
2023/01/29 02:19:56;;;;;;;17.80;12.80;;;-2.20;99.90;;;;;;5009420;28;20183;-78
2023/01/29 02:22:54;;;;;;;16.30;11.93;;;-2.20;99.90;;;;;;5008169;28;20188;-78
2023/01/29 02:25:47;;;;;;;19.20;13.33;;;-2.10;99.90;;;;;;5006750;28;20191;-79
2023/01/29 02:28:33;;;;;;;18.23;12.47;;;-1.90;99.90;;;;;;5007542;28;20191;-76
2023/01/29 02:31:20;;;;;;;15.97;11.83;;;-1.90;99.90;;;;;;5000576;28;20555;-77
2023/01/29 02:34:03;;;;;;;18.50;12.47;;;-1.80;99.90;;;;;;5006718;28;20226;-77
2023/01/29 02:36:37;;;;;;;17.50;12.70;;;-1.80;99.90;;;;;;5020847;28;20215;-76
2023/01/29 02:39:06;;;;;;;15.40;12.13;;;-1.80;99.90;;;;;;5006853;28;21053;-75
2023/01/29 02:41:53;;;;;;;18.50;12.90;;;-1.80;99.90;;;;;;5004375;28;20192;-75
2023/01/29 02:44:51;;;;;;;15.97;11.93;;;-1.70;99.90;;;;;;5020705;28;20267;-76
2023/01/29 02:47:21;;;;;;;16.10;12.13;;;-1.70;99.90;;;;;;5004306;28;20207;-76
2023/01/29 02:50:07;;;;;;;16.87;12.37;;;-1.70;99.90;;;;;;5003518;28;20677;-76
2023/01/29 02:52:43;;;;;;;17.07;12.03;;;-1.50;99.90;;;;;;5006458;28;20217;-78
2023/01/29 02:55:12;;;;;;;17.70;12.03;;;-1.40;99.90;;;;;;5004614;28;20237;-78
2023/01/29 02:57:42;;;;;;;16.50;12.17;;;-1.50;99.90;;;;;;5004447;28;20210;-75
2023/01/29 03:00:12;;;;;;;17.10;12.37;;;-1.40;99.90;;;;;;5005702;28;20227;-78
2023/01/29 03:02:46;;;;;;;17.43;12.10;;;-1.30;99.90;;;;;;5004719;28;20226;-78
2023/01/29 03:05:17;;;;;;;14.27;11.23;;;-1.20;99.90;;;;;;5020491;28;20191;-76
2023/01/29 03:07:52;;;;;;;14.97;11.37;;;-1.10;99.90;;;;;;5006290;28;20294;-78
2023/01/29 03:10:25;;;;;;;15.10;11.77;;;-1.10;99.90;;;;;;5005026;28;20547;-78
2023/01/29 03:12:58;;;;;;;16.60;11.87;;;-1.00;99.90;;;;;;5003328;28;20188;-77
2023/01/29 03:15:45;;;;;;;17.77;12.77;;;-1.10;99.90;;;;;;5003668;28;20629;-79
2023/01/29 03:18:16;;;;;;;15.93;11.23;;;-1.00;99.90;;;;;;5005471;28;20186;-78
2023/01/29 03:20:52;;;;;;;16.43;12.37;;;-1.00;99.90;;;;;;5005826;28;20226;-78
2023/01/29 03:23:36;;;;;;;16.47;12.10;;;-1.00;99.90;;;;;;5005511;28;20179;-77
2023/01/29 03:34:27;;;;;;;18.00;11.63;;;-0.90;99.90;;;;;;5005661;28;20194;-77
2023/01/29 03:36:54;;;;;;;16.33;11.87;;;-2.90;99.90;;;;;;5004955;28;20628;-78
2023/01/29 03:39:21;;;;;;;16.57;11.77;;;-0.80;99.90;;;;;;5003855;28;20277;-78
2023/01/29 03:42:22;;;;;;;17.03;12.07;;;-0.80;99.90;;;;;;5004884;28;20194;-79
2023/01/29 03:45:00;;;;;;;17.60;11.43;;;-0.70;99.90;;;;;;5004846;28;20175;-79
2023/01/29 03:47:44;;;;;;;16.90;12.10;;;-0.80;99.90;;;;;;5003723;28;20286;-78
2023/01/29 03:50:21;;;;;;;18.23;13.03;;;-0.70;99.90;;;;;;5020034;28;20656;-78
2023/01/29 03:53:15;;;;;;;18.07;12.23;;;-0.70;99.90;;;;;;5003273;28;20660;-79
2023/01/29 03:56:13;;;;;;;19.53;13.37;;;-0.60;99.90;;;;;;5004150;28;20211;-78
2023/01/29 03:58:55;;;;;;;15.17;12.27;;;-0.70;99.90;;;;;;5008758;28;20290;-77
2023/01/29 04:01:36;;;;;;;17.07;12.07;;;-0.70;99.90;;;;;;5009476;28;20261;-79
2023/01/29 04:04:10;;;;;;;18.63;12.90;;;-0.70;99.90;;;;;;5008974;28;20187;-78
2023/01/29 04:06:40;;;;;;;17.97;13.17;;;-0.70;99.90;;;;;;5008418;28;20226;-78
2023/01/29 04:09:48;;;;;;;16.20;11.87;;;-0.60;99.90;;;;;;5008670;28;20176;-79
2023/01/29 04:12:21;;;;;;;16.77;12.20;;;-0.60;99.90;;;;;;4977391;28;20183;-78
2023/01/29 04:14:50;;;;;;;17.70;12.70;;;-0.60;99.90;;;;;;5005591;28;20650;-78
2023/01/29 04:17:21;;;;;;;19.10;13.10;;;-0.60;99.90;;;;;;5008409;28;20227;-78
2023/01/29 04:19:47;;;;;;;17.73;12.60;;;-0.60;99.90;;;;;;5008136;28;20233;-78
2023/01/29 04:22:26;;;;;;;17.50;13.17;;;-0.60;99.90;;;;;;5007004;28;20195;-79
2023/01/29 04:24:51;;;;;;;16.77;12.77;;;-0.60;99.90;;;;;;5007846;28;20183;-77
2023/01/29 04:27:22;;;;;;;19.17;14.00;;;-0.60;99.90;;;;;;5008330;28;20225;-78
2023/01/29 04:30:06;;;;;;;16.43;13.07;;;-0.70;99.90;;;;;;5008334;28;20188;-79
2023/01/29 04:32:52;;;;;;;16.10;12.43;;;-0.60;99.90;;;;;;5023490;28;20203;-79
2023/01/29 04:35:38;;;;;;;17.63;13.10;;;-0.60;99.90;;;;;;5007633;28;20211;-79
2023/01/29 04:38:46;;;;;;;17.53;12.77;;;-0.60;98.10;;;;;;5007003;28;20183;-78
2023/01/29 04:41:24;;;;;;;17.03;13.10;;;-0.60;97.60;;;;;;5008023;28;20557;-78
2023/01/29 04:43:56;;;;;;;16.17;12.10;;;-0.60;99.90;;;;;;5009291;28;20670;-78
2023/01/29 04:46:39;;;;;;;16.47;12.03;;;-0.60;95.60;;;;;;5009556;28;20230;-79
2023/01/29 04:49:13;;;;;;;18.77;13.57;;;-0.60;97.30;;;;;;5008264;28;20175;-78
2023/01/29 04:51:54;;;;;;;19.40;14.32;;;-0.70;98.60;;;;;;5008327;28;20437;-78
2023/01/29 04:54:41;;;;;;;20.23;13.97;;;-0.70;99.90;;;;;;5008200;28;20191;-79
2023/01/29 04:57:33;;;;;;;18.20;13.10;;;-0.80;99.90;;;;;;5008133;28;20282;-79
2023/01/29 05:00:07;;;;;;;16.67;12.30;;;-0.80;99.90;;;;;;5008310;28;20199;-79
2023/01/29 05:02:36;;;;;;;19.50;13.47;;;-0.90;99.90;;;;;;5007552;28;20175;-79
2023/01/29 05:05:04;;;;;;;17.97;13.33;;;-1.00;99.90;;;;;;5006337;28;20238;-79
2023/01/29 05:07:31;;;;;;;16.90;12.60;;;-1.00;99.90;;;;;;5007805;28;20184;-79
2023/01/29 05:09:58;;;;;;;17.43;12.57;;;-1.00;99.90;;;;;;5007907;28;20183;-78
2023/01/29 05:12:27;;;;;;;18.50;13.60;;;-1.20;99.90;;;;;;5008118;28;20226;-78
2023/01/29 05:14:57;;;;;;;17.87;13.23;;;-1.10;99.90;;;;;;5005846;28;20218;-79
2023/01/29 05:17:24;;;;;;;18.57;12.97;;;-1.20;99.90;;;;;;5007692;28;20204;-78
2023/01/29 05:19:49;;;;;;;24.77;13.33;;;-1.20;99.90;;;;;;5023013;28;20187;-79
2023/01/29 05:22:21;;;;;;;20.93;13.60;;;-1.20;99.90;;;;;;5007824;28;20184;-78
2023/01/29 05:24:47;;;;;;;22.27;13.57;;;-1.20;99.90;;;;;;5007308;28;20172;-78
2023/01/29 05:30:03;;;;;;;18.10;13.00;;;-1.30;99.90;;;;;;5008191;28;20186;-79
2023/01/29 05:32:29;;;;;;;19.37;13.53;;;-1.40;99.90;;;;;;5022839;28;20195;-79
2023/01/29 05:34:54;;;;;;;20.77;13.40;;;-1.50;99.90;;;;;;5007290;28;20198;-78
2023/01/29 05:37:20;;;;;;;21.40;14.27;;;-1.50;99.90;;;;;;5006851;28;20246;-79
2023/01/29 05:39:45;;;;;;;21.87;13.57;;;-1.50;99.90;;;;;;5006246;28;20183;-78
2023/01/29 05:42:11;;;;;;;19.13;13.47;;;-1.60;99.90;;;;;;5007517;28;21088;-78
2023/01/29 05:44:36;;;;;;;19.43;13.77;;;-1.60;99.90;;;;;;5007704;28;20182;-79
2023/01/29 05:47:02;;;;;;;20.80;14.00;;;-2.90;99.90;;;;;;5007459;28;20753;-79
2023/01/29 05:49:28;;;;;;;20.43;13.97;;;-1.70;99.90;;;;;;5007720;28;20194;-78
2023/01/29 05:51:53;;;;;;;22.40;13.93;;;-1.60;99.90;;;;;;5007216;28;20194;-77
2023/01/29 05:54:19;;;;;;;19.90;13.50;;;-1.60;99.90;;;;;;5007251;28;20218;-79
2023/01/29 05:56:44;;;;;;;19.87;13.87;;;-1.70;99.90;;;;;;5007050;28;20597;-79
2023/01/29 05:59:10;;;;;;;19.90;13.97;;;-1.70;99.90;;;;;;5006212;28;20250;-78
2023/01/29 06:01:36;;;;;;;21.47;13.90;;;-1.70;99.90;;;;;;5006989;28;20230;-79
2023/01/29 06:04:01;;;;;;;21.40;14.50;;;-1.50;99.90;;;;;;5006749;28;20253;-79
2023/01/29 06:06:27;;;;;;;24.43;15.00;;;-1.30;99.90;;;;;;5006565;28;20665;-78
2023/01/29 06:08:53;;;;;;;23.50;15.63;;;-1.20;99.90;;;;;;5007118;28;20202;-79
2023/01/29 06:11:19;;;;;;;22.17;14.90;;;-1.20;99.90;;;;;;5007112;28;20196;-78
2023/01/29 06:13:45;;;;;;;23.60;15.63;;;-1.10;99.90;;;;;;5022223;28;20214;-78
2023/01/29 06:16:12;;;;;;;22.53;14.53;;;-1.00;99.90;;;;;;5006603;28;20211;-78
2023/01/29 06:18:38;;;;;;;20.70;13.10;;;-1.00;99.90;;;;;;5004774;28;20188;-78
2023/01/29 06:21:05;;;;;;;19.43;13.77;;;-1.00;99.90;;;;;;5006170;28;20187;-79
2023/01/29 06:23:31;;;;;;;20.30;14.70;;;-0.90;99.90;;;;;;5006550;28;20196;-77
2023/01/29 06:26:01;;;;;;;19.10;13.87;;;-0.90;99.90;;;;;;5006281;28;20217;-79
2023/01/29 06:28:27;;;;;;;22.30;14.57;;;-0.80;99.90;;;;;;5005755;28;20294;-78
2023/01/29 06:30:57;;;;;;;21.37;14.97;;;-0.80;99.90;;;;;;5004289;28;20199;-78
2023/01/29 06:33:22;;;;;;;20.80;14.37;;;-0.60;99.90;;;;;;5005289;28;20175;-79
2023/01/29 06:35:48;;;;;;;21.13;17.20;;;-0.50;99.90;;;;;;5004382;28;20793;-79
2023/01/29 06:38:13;;;;;;;21.67;15.70;;;-0.40;94.10;;;;;;5004923;28;20195;-78
2023/01/29 06:40:39;;;;;;;19.50;14.33;;;-0.30;81.20;;;;;;5020936;28;20184;-78
2023/01/29 06:43:04;;;;;;;20.73;14.03;;;-0.30;72.00;;;;;;5004285;28;20218;-78
2023/01/29 06:45:30;;;;;;;19.97;14.23;;;-0.30;70.90;;;;;;5004058;28;20262;-78
2023/01/29 06:47:55;;;;;;;20.53;14.13;;;-0.20;58.80;;;;;;5005548;28;20358;-78
2023/01/29 06:50:21;;;;;;;19.53;14.90;;;-0.20;54.80;;;;;;5004253;28;20199;-78
2023/01/29 06:52:47;;;;;;;19.63;14.63;;;-0.20;46.80;;;;;;5005080;28;20191;-79
2023/01/29 06:55:12;;;;;;;22.37;15.40;;;-0.30;48.40;;;;;;5004218;28;20738;-80
2023/01/29 06:57:38;;;;;;;20.57;14.77;;;-0.30;58.70;;;;;;5004795;28;21137;-79
2023/01/29 07:00:05;;;;;;;24.20;14.47;;;-0.20;62.00;;;;;;5004558;28;20191;-78
2023/01/29 07:02:30;;;;;;;19.97;13.90;;;-0.20;54.20;;;;;;5005527;28;20218;-79
2023/01/29 07:04:56;;;;;;;21.73;14.17;;;-0.20;53.60;;;;;;5005068;28;20211;-78
2023/01/29 07:07:22;;;;;;;19.20;13.83;;;-0.20;46.90;;;;;;5005263;28;20219;-78
2023/01/29 07:09:47;;;;;;;20.40;14.80;;;-0.10;41.30;;;;;;5005567;28;20191;-80
2023/01/29 07:12:13;;;;;;;22.50;14.60;;;-0.10;43.10;;;;;;5006405;28;20194;-82
2023/01/29 07:14:38;;;;;;;22.30;14.30;;;-0.10;37.40;;;;;;5004419;28;20203;-80
2023/01/29 07:17:04;;;;;;;23.03;15.33;;;-0.10;41.70;;;;;;5004076;28;20644;-79
2023/01/29 07:19:29;;;;;;;21.20;14.97;;;0.00;35.40;;;;;;5002586;28;20667;-79
2023/01/29 07:21:55;;;;;;;20.97;14.17;;;-0.10;33.60;;;;;;5003632;28;20534;-80
2023/01/29 07:24:21;;;;;;;17.93;13.50;;;0.00;30.20;;;;;;5003409;28;20191;-80
2023/01/29 07:26:46;;;;;;;22.70;15.53;;;0.00;30.10;;;;;;5003935;28;20273;-79
2023/01/29 07:29:12;;;;;;;20.80;15.27;;;-0.10;30.80;;;;;;5004392;28;20222;-79
2023/01/29 07:31:37;;;;;;;21.67;15.03;;;0.00;28.10;;;;;;5004393;28;20207;-79
2023/01/29 07:34:03;;;;;;;20.50;14.67;;;-0.10;26.20;;;;;;5005266;28;20202;-80
2023/01/29 07:36:28;;;;;;;21.27;15.17;;;-0.10;32.60;;;;;;5004825;28;20223;-79
2023/01/29 07:38:54;;;;;;;20.20;14.13;;;0.00;42.20;;;;;;5004966;28;20186;-77
2023/01/29 07:41:20;;;;;;;20.20;14.07;;;0.00;27.30;;;;;;5003122;28;20689;-77
2023/01/29 07:43:46;;;;;;;19.70;14.03;;;0.00;28.50;;;;;;5003607;28;20251;-77
2023/01/29 07:46:12;;;;;;;23.83;15.83;;;0.00;29.50;;;;;;5003593;28;20211;-76
2023/01/29 07:48:37;;;;;;;22.20;15.23;;;0.00;22.00;;;;;;5004422;28;20261;-77
2023/01/29 07:51:03;;;;;;;22.67;14.73;;;0.10;19.80;;;;;;5003736;28;20183;-77
2023/01/29 07:53:29;;;;;;;21.97;14.47;;;0.10;17.60;;;;;;5004070;28;20197;-77
2023/01/29 07:55:55;;;;;;;20.87;14.97;;;0.10;23.20;;;;;;5004266;28;20558;-75
2023/01/29 07:58:21;;;;;;;20.43;13.67;;;0.10;9.40;;;;;;5019916;28;20191;-77
2023/01/29 08:00:46;;;;;;;23.07;14.23;;;0.10;9.30;;;;;;5003774;28;20716;-78
2023/01/29 08:03:15;;;;;;;22.47;14.73;;;0.10;9.10;;;;;;5003813;28;20190;-78
2023/01/29 08:05:41;;;;;;;19.57;13.90;;;0.10;6.20;;;;;;5019458;28;20226;-78
2023/01/29 08:08:07;;;;;;;23.00;15.20;;;0.20;6.60;;;;;;5004628;28;20196;-78
2023/01/29 08:10:33;;;;;;;20.83;14.47;;;0.20;2.60;;;;;;5005620;28;20191;-78
2023/01/29 08:13:00;;;;;;;22.67;15.23;;;0.20;1.00;;;;;;5020302;28;20192;-75
2023/01/29 08:15:27;;;;;;;19.33;14.00;;;0.20;1.50;;;;;;5004835;28;20314;-75
2023/01/29 08:17:53;;;;;;;21.97;14.67;;;0.30;1.00;;;;;;5004195;28;20253;-78
2023/01/29 08:20:19;;;;;;;19.77;14.73;;;0.30;1.00;;;;;;5005374;28;20214;-79
2023/01/29 08:22:45;;;;;;;21.63;14.50;;;0.30;1.00;;;;;;5003352;28;20646;-76
2023/01/29 08:25:10;;;;;;;19.23;13.30;;;0.40;1.00;;;;;;5003284;28;20183;-78
2023/01/29 08:27:36;;;;;;;19.23;14.03;;;0.40;1.00;;;;;;5019073;28;20199;-76
2023/01/29 08:30:02;;;;;;;20.53;14.20;;;0.40;1.00;;;;;;5002189;28;20203;-78
2023/01/29 08:32:28;;;;;;;17.67;13.50;;;0.40;1.00;;;;;;5002435;28;20684;-76
2023/01/29 08:34:53;;;;;;;23.20;14.60;;;0.50;1.00;;;;;;5002121;28;20218;-76
2023/01/29 08:37:19;;;;;;;19.40;13.67;;;0.50;1.00;;;;;;5002863;28;20258;-77
2023/01/29 08:39:45;;;;;;;20.50;13.87;;;0.40;1.00;;;;;;5002930;28;20222;-79
2023/01/29 08:42:10;;;;;;;21.63;14.60;;;0.40;1.00;;;;;;5000068;28;20299;-75
2023/01/29 08:44:36;;;;;;;21.03;14.57;;;0.40;1.00;;;;;;5003773;28;20211;-76
2023/01/29 08:47:01;;;;;;;20.63;14.17;;;0.50;1.00;;;;;;5004917;28;20212;-78
2023/01/29 08:49:27;;;;;;;21.20;14.40;;;0.50;1.00;;;;;;5007036;28;20192;-78
2023/01/29 08:51:55;;;;;;;21.47;14.50;;;0.50;1.00;;;;;;5006843;28;20191;-77
2023/01/29 08:54:21;;;;;;;22.30;14.53;;;0.50;1.00;;;;;;5005449;28;20665;-78
2023/01/29 08:56:47;;;;;;;20.33;13.97;;;0.50;1.00;;;;;;5005087;28;20223;-77
2023/01/29 08:59:12;;;;;;;20.93;14.40;;;0.50;1.00;;;;;;5005794;28;20199;-76
2023/01/29 09:01:38;;;;;;;21.73;14.80;;;0.50;99.90;;;;;;5007491;28;21049;-78
2023/01/29 09:04:04;;;;;;;22.63;14.97;;;0.50;1.00;;;;;;5006502;28;20210;-78
2023/01/29 09:06:29;;;;;;;22.73;14.63;;;0.60;1.00;;;;;;5004625;28;20716;-76
2023/01/29 09:08:55;;;;;;;23.23;15.07;;;0.60;1.00;;;;;;5004197;28;20191;-77
2023/01/29 09:11:20;;;;;;;21.20;15.00;;;0.60;1.00;;;;;;5006604;28;20192;-78
2023/01/29 09:13:46;;;;;;;22.93;15.00;;;0.60;1.00;;;;;;5003630;28;20191;-76
2023/01/29 09:16:11;;;;;;;21.37;14.37;;;0.60;1.00;;;;;;5019791;28;20239;-76
2023/01/29 09:18:37;;;;;;;22.20;14.83;;;0.60;1.00;;;;;;5005731;28;20184;-77
2023/01/29 09:21:03;;;;;;;20.53;14.07;;;0.60;1.00;;;;;;5003883;28;20187;-80
2023/01/29 09:23:29;;;;;;;22.07;15.13;;;0.60;1.00;;;;;;5004331;28;20191;-78
2023/01/29 09:25:55;;;;;;;21.33;14.37;;;0.60;1.00;;;;;;5005125;28;20245;-77
2023/01/29 09:28:22;;;;;;;21.77;15.00;;;0.70;1.00;;;;;;5005622;28;20599;-78
2023/01/29 09:30:47;;;;;;;21.20;14.07;;;0.70;1.00;;;;;;5007410;28;20234;-78
2023/01/29 09:33:13;;;;;;;24.00;15.27;;;0.70;1.00;;;;;;5010198;28;20680;-77
2023/01/29 09:35:42;;;;;;;23.87;15.63;;;0.70;1.00;;;;;;5005803;28;20314;-79
2023/01/29 09:38:09;;;;;;;22.43;15.77;;;0.70;1.00;;;;;;5021326;28;20704;-81
2023/01/29 09:40:40;;;;;;;21.83;15.37;;;0.70;1.00;;;;;;5007635;28;20191;-75
2023/01/29 09:43:20;;;;;;;22.90;15.13;;;0.70;99.90;;;;;;5003793;28;21785;-78
2023/01/29 09:45:59;;;;;;;20.80;14.07;;;0.80;1.00;;;;;;5007090;28;20219;-78
2023/01/29 09:48:29;;;;;;;22.70;16.60;;;0.80;1.00;;;;;;5004571;28;20244;-80
2023/01/29 09:50:59;;;;;;;21.13;14.20;;;0.90;1.00;;;;;;5003187;28;20218;-81
2023/01/29 09:53:37;;;;;;;21.57;14.73;;;0.80;1.00;;;;;;5003414;28;20195;-81
2023/01/29 09:56:21;;;;;;;24.17;14.77;;;0.80;1.00;;;;;;5004173;28;20246;-82
2023/01/29 09:58:47;;;;;;;18.93;13.33;;;0.80;1.00;;;;;;5003195;28;20958;-81
2023/01/29 10:01:25;;;;;;;21.43;14.87;;;0.80;1.00;;;;;;5018509;28;20196;-83
2023/01/29 10:03:53;;;;;;;21.03;13.80;;;0.80;1.00;;;;;;5004795;28;20187;-79
2023/01/29 10:06:42;;;;;;;18.30;13.00;;;0.80;1.00;;;;;;4999707;28;20219;-78
2023/01/29 10:09:36;;;;;;;19.40;12.93;;;0.80;1.00;;;;;;5003860;28;20302;-77
2023/01/29 10:12:17;;;;;;;20.27;13.53;;;0.80;1.00;;;;;;5004862;28;20187;-77
2023/01/29 10:15:08;;;;;;;21.10;13.97;;;0.90;1.00;;;;;;5005023;28;20188;-80
2023/01/29 10:17:53;;;;;;;21.73;14.43;;;0.90;1.00;;;;;;5019283;28;20222;-78
2023/01/29 10:20:57;;;;;;;18.30;12.90;;;0.90;1.00;;;;;;5003510;28;20617;-76
2023/01/29 10:23:36;;;;;;;20.73;13.43;;;1.00;1.00;;;;;;5004256;28;20191;-79
2023/01/29 10:26:02;;;;;;;19.83;13.27;;;1.00;1.00;;;;;;5002293;28;20258;-77
2023/01/29 10:28:38;;;;;;;19.17;13.57;;;1.00;1.00;;;;;;5001569;28;20187;-80
2023/01/29 10:31:11;;;;;;;20.77;14.43;;;1.00;1.00;;;;;;5004397;28;20206;-78
2023/01/29 10:33:42;;;;;;;19.80;13.60;;;1.00;1.00;;;;;;5004613;28;20191;-80
2023/01/29 10:36:16;;;;;;;21.97;14.43;;;1.10;1.00;;;;;;5003578;28;20275;-78
2023/01/29 10:38:43;;;;;;;19.37;13.43;;;1.10;1.00;;;;;;5002996;28;21760;-78
2023/01/29 10:41:32;;;;;;;20.77;14.27;;;1.10;1.00;;;;;;5015080;28;20637;-76
2023/01/29 10:44:24;;;;;;;20.63;13.53;;;1.10;1.00;;;;;;5001038;28;20182;-77
2023/01/29 10:47:10;;;;;;;18.83;13.57;;;1.20;1.00;;;;;;5000139;28;20211;-77
2023/01/29 10:50:11;;;;;;;20.03;13.80;;;1.10;1.00;;;;;;5001371;28;20867;-81
2023/01/29 10:52:42;;;;;;;19.03;13.67;;;1.10;1.00;;;;;;5017796;28;20176;-79
2023/01/29 10:55:33;;;;;;;20.13;13.60;;;1.10;1.00;;;;;;5017467;28;20706;-79
2023/01/29 10:58:26;;;;;;;21.83;14.63;;;1.20;1.00;;;;;;5002790;28;20183;-76
2023/01/29 11:00:52;;;;;;;20.70;13.73;;;1.20;1.00;;;;;;5018499;28;20183;-77
2023/01/29 11:03:21;;;;;;;19.73;14.23;;;1.20;1.00;;;;;;5008950;28;20607;-79
2023/01/29 11:06:34;;;;;;;20.70;13.83;;;1.20;1.00;;;;;;5003785;28;20207;-83
2023/01/29 11:09:21;;;;;;;20.70;14.00;;;1.20;1.00;;;;;;5001562;28;20199;-79
2023/01/29 11:11:53;;;;;;;20.63;14.03;;;1.10;1.00;;;;;;5004429;28;20183;-79
2023/01/29 11:14:28;;;;;;;20.40;13.40;;;1.10;1.00;;;;;;5003226;28;20717;-79
2023/01/29 11:16:54;;;;;;;21.33;14.13;;;1.10;1.00;;;;;;5004375;28;20213;-84
2023/01/29 11:19:41;;;;;;;19.57;12.83;;;1.10;1.00;;;;;;5003445;28;20682;-79
2023/01/29 11:22:14;;;;;;;19.93;13.67;;;1.20;1.00;;;;;;5017066;28;20243;-79
2023/01/29 11:24:39;;;;;;;21.73;14.73;;;1.20;1.00;;;;;;5001978;28;20265;-79
2023/01/29 11:27:15;;;;;;;18.90;13.23;;;1.20;1.00;;;;;;5004923;28;20227;-79
2023/01/29 11:29:47;;;;;;;19.40;13.70;;;1.20;1.00;;;;;;5020805;28;20183;-78
2023/01/29 11:32:33;;;;;;;20.77;14.57;;;1.20;1.00;;;;;;5005188;28;20214;-79
2023/01/29 11:35:02;;;;;;;21.83;14.83;;;1.20;1.00;;;;;;5005226;28;20581;-79
2023/01/29 11:37:41;;;;;;;21.30;13.70;;;1.20;1.00;;;;;;5004224;28;20238;-78
2023/01/29 11:40:36;;;;;;;19.93;13.63;;;1.20;1.00;;;;;;5003724;28;20182;-77
2023/01/29 11:43:18;;;;;;;23.43;15.33;;;1.20;1.00;;;;;;5002043;28;20187;-79
2023/01/29 11:45:44;;;;;;;19.77;13.50;;;1.30;1.00;;;;;;5004542;28;20219;-79
2023/01/29 11:48:24;;;;;;;21.83;14.70;;;1.30;1.00;;;;;;5003406;28;20592;-79
2023/01/29 11:50:56;;;;;;;23.80;14.63;;;1.30;1.00;;;;;;5005319;28;20250;-78
2023/01/29 11:53:36;;;;;;;19.20;13.50;;;1.30;1.00;;;;;;5000126;28;20250;-80
2023/01/29 11:56:05;;;;;;;22.87;15.47;;;1.30;1.00;;;;;;5002415;28;20558;-78
2023/01/29 11:58:34;;;;;;;20.90;14.17;;;1.30;1.00;;;;;;5004110;28;20194;-79
2023/01/29 12:01:00;;;;;;;20.23;13.40;;;1.30;1.00;;;;;;5004310;28;20203;-79
2023/01/29 12:03:43;;;;;;;22.20;14.57;;;2.30;1.00;;;;;;5003301;28;20661;-80
2023/01/29 12:06:21;;;;;;;20.37;13.67;;;1.30;1.00;;;;;;5002445;28;20207;-80
2023/01/29 12:08:58;;;;;;;20.43;14.20;;;1.30;1.00;;;;;;5003546;28;20179;-80
2023/01/29 12:11:33;;;;;;;19.90;14.00;;;1.40;1.00;;;;;;5002552;28;20207;-80
2023/01/29 12:14:05;;;;;;;19.33;13.37;;;-0.10;1.00;;;;;;5002455;28;21119;-79
2023/01/29 12:17:02;;;;;;;20.37;14.43;;;1.40;1.00;;;;;;5003823;28;20207;-79
2023/01/29 12:19:33;;;;;;;19.23;12.70;;;1.40;1.00;;;;;;5005388;28;20180;-79
2023/01/29 12:22:17;;;;;;;17.20;12.67;;;1.50;1.00;;;;;;5005022;28;20175;-79
2023/01/29 12:24:57;;;;;;;19.70;13.87;;;1.50;1.00;;;;;;5006958;28;20182;-81
2023/01/29 12:27:38;;;;;;;20.57;14.20;;;1.50;1.00;;;;;;5007049;28;20215;-82
2023/01/29 12:30:14;;;;;;;17.97;12.87;;;1.50;1.00;;;;;;5022318;28;20186;-81
2023/01/29 12:32:56;;;;;;;17.33;12.50;;;0.80;1.00;;;;;;5021811;28;20556;-80
2023/01/29 12:35:58;;;;;;;18.57;12.83;;;1.50;1.00;;;;;;5006436;28;20207;-81
2023/01/29 12:38:24;;;;;;;18.53;12.70;;;1.50;1.00;;;;;;5006181;28;20936;-80
2023/01/29 12:40:59;;;;;;;19.80;13.20;;;1.50;1.00;;;;;;5007817;28;20487;-79
2023/01/29 12:43:38;;;;;;;21.43;13.53;;;1.50;1.00;;;;;;5007330;28;20187;-80
2023/01/29 12:46:10;;;;;;;17.50;12.50;;;1.50;1.00;;;;;;5006987;28;20235;-80
2023/01/29 12:48:41;;;;;;;19.03;12.27;;;1.60;1.00;;;;;;5006032;28;20194;-78
2023/01/29 12:51:20;;;;;;;17.90;12.70;;;1.60;1.00;;;;;;5008224;28;20612;-79
2023/01/29 12:54:03;;;;;;;18.10;12.60;;;1.60;1.00;;;;;;5007389;28;20210;-79
2023/01/29 12:56:46;;;;;;;16.40;12.53;;;1.60;1.00;;;;;;5007290;28;20242;-77
2023/01/29 12:59:25;;;;;;;15.93;11.53;;;1.60;1.00;;;;;;5008420;28;20602;-78
2023/01/29 13:02:03;;;;;;;16.43;11.97;;;1.60;1.00;;;;;;5004778;28;20869;-81
2023/01/29 13:04:44;;;;;;;17.20;12.67;;;1.60;1.00;;;;;;5006356;28;21271;-77
2023/01/29 13:07:22;;;;;;;18.50;12.70;;;1.60;1.00;;;;;;5006557;28;20759;-79
2023/01/29 13:10:00;;;;;;;16.73;12.40;;;1.50;1.00;;;;;;5004239;28;20184;-81
2023/01/29 13:12:28;;;;;;;15.70;11.17;;;1.50;1.00;;;;;;5017127;28;20307;-75
2023/01/29 13:14:59;;;;;;;21.00;13.10;;;1.50;1.00;;;;;;5001740;28;20950;-75
2023/01/29 13:17:34;;;;;;;17.83;12.70;;;1.50;1.00;;;;;;5002720;28;20223;-78
2023/01/29 13:20:16;;;;;;;15.90;11.60;;;1.50;1.00;;;;;;5001519;28;20199;-77
2023/01/29 13:22:44;;;;;;;17.27;12.30;;;-0.50;1.00;;;;;;5004104;28;20183;-75
2023/01/29 13:25:20;;;;;;;17.83;13.20;;;1.50;1.00;;;;;;5002747;28;20251;-77
2023/01/29 13:27:47;;;;;;;16.00;12.03;;;3.40;1.00;;;;;;4999930;28;20270;-76
2023/01/29 13:30:30;;;;;;;17.27;12.03;;;3.30;1.00;;;;;;5002802;28;20198;-76